sensor_id;sensor_type;location;lat;lon;timestamp;P1;durP1;ratioP1;P2;durP2;ratioP2
2021;SDS011;1015;49.756;6.994;2022-09-20T00:00:29;4.63;;;3.60;;
2021;SDS011;1015;49.756;6.994;2022-09-20T00:02:56;5.93;;;4.20;;
2021;SDS011;1015;49.756;6.994;2022-09-20T00:05:23;4.70;;;4.00;;
2021;SDS011;1015;49.756;6.994;2022-09-20T00:07:51;7.37;;;5.37;;
2021;SDS011;1015;49.756;6.994;2022-09-20T00:10:18;9.90;;;4.97;;
2021;SDS011;1015;49.756;6.994;2022-09-20T00:12:46;7.00;;;4.43;;
2021;SDS011;1015;49.756;6.994;2022-09-20T00:15:13;5.20;;;3.90;;
2021;SDS011;1015;49.756;6.994;2022-09-20T00:17:40;6.00;;;3.63;;
2021;SDS011;1015;49.756;6.994;2022-09-20T00:20:07;5.90;;;4.30;;
2021;SDS011;1015;49.756;6.994;2022-09-20T00:22:35;5.30;;;4.30;;
2021;SDS011;1015;49.756;6.994;2022-09-20T00:25:03;6.10;;;4.00;;
2021;SDS011;1015;49.756;6.994;2022-09-20T00:27:31;6.60;;;4.23;;
2021;SDS011;1015;49.756;6.994;2022-09-20T00:29:58;5.17;;;4.17;;
2021;SDS011;1015;49.756;6.994;2022-09-20T00:32:25;5.90;;;4.20;;
2021;SDS011;1015;49.756;6.994;2022-09-20T00:34:52;5.60;;;3.60;;
2021;SDS011;1015;49.756;6.994;2022-09-20T00:37:35;7.57;;;4.10;;
2021;SDS011;1015;49.756;6.994;2022-09-20T00:40:05;4.90;;;3.53;;
2021;SDS011;1015;49.756;6.994;2022-09-20T00:42:34;6.60;;;4.47;;
2021;SDS011;1015;49.756;6.994;2022-09-20T00:45:02;6.87;;;4.03;;
2021;SDS011;1015;49.756;6.994;2022-09-20T00:47:31;5.30;;;3.90;;
2021;SDS011;1015;49.756;6.994;2022-09-20T00:50:05;6.07;;;3.90;;
2021;SDS011;1015;49.756;6.994;2022-09-20T00:52:39;5.10;;;3.97;;
2021;SDS011;1015;49.756;6.994;2022-09-20T00:55:11;5.90;;;3.90;;
2021;SDS011;1015;49.756;6.994;2022-09-20T00:57:41;6.23;;;3.80;;
2021;SDS011;1015;49.756;6.994;2022-09-20T01:00:09;5.67;;;3.80;;
2021;SDS011;1015;49.756;6.994;2022-09-20T01:02:38;8.83;;;4.90;;
2021;SDS011;1015;49.756;6.994;2022-09-20T01:05:08;4.33;;;3.93;;
2021;SDS011;1015;49.756;6.994;2022-09-20T01:07:36;5.40;;;4.43;;
2021;SDS011;1015;49.756;6.994;2022-09-20T01:10:04;5.07;;;4.23;;
2021;SDS011;1015;49.756;6.994;2022-09-20T01:12:33;5.67;;;4.33;;
2021;SDS011;1015;49.756;6.994;2022-09-20T01:15:01;5.67;;;4.03;;
2021;SDS011;1015;49.756;6.994;2022-09-20T01:17:30;4.70;;;4.07;;
2021;SDS011;1015;49.756;6.994;2022-09-20T01:20:08;7.50;;;4.50;;
2021;SDS011;1015;49.756;6.994;2022-09-20T01:22:46;6.00;;;4.07;;
2021;SDS011;1015;49.756;6.994;2022-09-20T01:25:25;5.10;;;3.87;;
2021;SDS011;1015;49.756;6.994;2022-09-20T01:28:12;4.90;;;4.13;;
2021;SDS011;1015;49.756;6.994;2022-09-20T01:30:40;5.10;;;3.80;;
2021;SDS011;1015;49.756;6.994;2022-09-20T01:33:13;6.13;;;4.10;;
2021;SDS011;1015;49.756;6.994;2022-09-20T01:35:49;7.83;;;4.13;;
2021;SDS011;1015;49.756;6.994;2022-09-20T01:38:21;6.07;;;4.13;;
2021;SDS011;1015;49.756;6.994;2022-09-20T01:40:58;7.80;;;3.80;;
2021;SDS011;1015;49.756;6.994;2022-09-20T01:43:33;5.70;;;3.67;;
2021;SDS011;1015;49.756;6.994;2022-09-20T01:46:06;8.63;;;4.50;;
2021;SDS011;1015;49.756;6.994;2022-09-20T01:48:40;9.63;;;4.47;;
2021;SDS011;1015;49.756;6.994;2022-09-20T01:51:23;6.13;;;4.00;;
2021;SDS011;1015;49.756;6.994;2022-09-20T01:54:32;5.00;;;3.80;;
2021;SDS011;1015;49.756;6.994;2022-09-20T01:57:37;4.33;;;3.73;;
2021;SDS011;1015;49.756;6.994;2022-09-20T02:00:34;6.50;;;4.50;;
2021;SDS011;1015;49.756;6.994;2022-09-20T02:03:25;5.43;;;3.50;;
2021;SDS011;1015;49.756;6.994;2022-09-20T02:06:14;5.53;;;3.60;;
2021;SDS011;1015;49.756;6.994;2022-09-20T02:09:10;4.17;;;3.77;;
2021;SDS011;1015;49.756;6.994;2022-09-20T02:12:27;6.70;;;4.60;;
2021;SDS011;1015;49.756;6.994;2022-09-20T02:15:12;9.10;;;4.30;;
2021;SDS011;1015;49.756;6.994;2022-09-20T02:17:54;11.33;;;4.50;;
2021;SDS011;1015;49.756;6.994;2022-09-20T02:20:32;9.60;;;3.87;;
2021;SDS011;1015;49.756;6.994;2022-09-20T02:23:16;7.50;;;4.10;;
2021;SDS011;1015;49.756;6.994;2022-09-20T02:25:58;5.77;;;4.30;;
2021;SDS011;1015;49.756;6.994;2022-09-20T02:28:36;4.70;;;3.93;;
2021;SDS011;1015;49.756;6.994;2022-09-20T02:31:21;4.93;;;4.10;;
2021;SDS011;1015;49.756;6.994;2022-09-20T02:36:54;4.53;;;3.80;;
2021;SDS011;1015;49.756;6.994;2022-09-20T02:39:34;6.90;;;4.17;;
2021;SDS011;1015;49.756;6.994;2022-09-20T02:42:04;7.00;;;3.97;;
2021;SDS011;1015;49.756;6.994;2022-09-20T02:44:49;7.90;;;4.20;;
2021;SDS011;1015;49.756;6.994;2022-09-20T02:47:25;7.17;;;4.27;;
2021;SDS011;1015;49.756;6.994;2022-09-20T02:50:04;4.70;;;3.93;;
2021;SDS011;1015;49.756;6.994;2022-09-20T02:52:41;10.07;;;4.23;;
2021;SDS011;1015;49.756;6.994;2022-09-20T02:55:17;5.87;;;4.10;;
2021;SDS011;1015;49.756;6.994;2022-09-20T02:57:50;7.60;;;4.70;;
2021;SDS011;1015;49.756;6.994;2022-09-20T03:00:24;7.70;;;4.20;;
2021;SDS011;1015;49.756;6.994;2022-09-20T03:02:59;6.90;;;4.37;;
2021;SDS011;1015;49.756;6.994;2022-09-20T03:05:35;5.83;;;4.17;;
2021;SDS011;1015;49.756;6.994;2022-09-20T03:08:14;7.50;;;3.70;;
2021;SDS011;1015;49.756;6.994;2022-09-20T03:10:55;6.30;;;4.43;;
2021;SDS011;1015;49.756;6.994;2022-09-20T03:13:29;5.03;;;4.20;;
2021;SDS011;1015;49.756;6.994;2022-09-20T03:16:09;5.33;;;4.67;;
2021;SDS011;1015;49.756;6.994;2022-09-20T03:18:43;5.90;;;4.53;;
2021;SDS011;1015;49.756;6.994;2022-09-20T03:21:23;7.17;;;4.87;;
2021;SDS011;1015;49.756;6.994;2022-09-20T03:24:02;6.23;;;5.60;;
2021;SDS011;1015;49.756;6.994;2022-09-20T03:26:42;6.30;;;4.70;;
2021;SDS011;1015;49.756;6.994;2022-09-20T03:29:22;8.70;;;4.83;;
2021;SDS011;1015;49.756;6.994;2022-09-20T03:32:04;10.73;;;5.67;;
2021;SDS011;1015;49.756;6.994;2022-09-20T03:34:46;7.43;;;5.83;;
2021;SDS011;1015;49.756;6.994;2022-09-20T03:37:38;7.63;;;5.17;;
2021;SDS011;1015;49.756;6.994;2022-09-20T03:40:28;8.20;;;5.53;;
2021;SDS011;1015;49.756;6.994;2022-09-20T03:43:24;7.13;;;4.20;;
2021;SDS011;1015;49.756;6.994;2022-09-20T03:46:07;7.70;;;5.07;;
2021;SDS011;1015;49.756;6.994;2022-09-20T03:48:55;6.60;;;5.70;;
2021;SDS011;1015;49.756;6.994;2022-09-20T03:51:31;5.83;;;4.70;;
2021;SDS011;1015;49.756;6.994;2022-09-20T03:57:22;7.80;;;5.00;;
2021;SDS011;1015;49.756;6.994;2022-09-20T04:00:06;7.63;;;4.37;;
2021;SDS011;1015;49.756;6.994;2022-09-20T04:02:55;6.53;;;4.30;;
2021;SDS011;1015;49.756;6.994;2022-09-20T04:05:47;6.70;;;3.83;;
2021;SDS011;1015;49.756;6.994;2022-09-20T04:08:27;6.13;;;4.10;;
2021;SDS011;1015;49.756;6.994;2022-09-20T04:11:07;6.93;;;4.27;;
2021;SDS011;1015;49.756;6.994;2022-09-20T04:13:43;9.13;;;4.67;;
2021;SDS011;1015;49.756;6.994;2022-09-20T04:16:25;8.43;;;4.30;;
2021;SDS011;1015;49.756;6.994;2022-09-20T04:18:58;5.97;;;4.20;;
2021;SDS011;1015;49.756;6.994;2022-09-20T04:21:32;6.07;;;4.63;;
2021;SDS011;1015;49.756;6.994;2022-09-20T04:24:04;6.33;;;4.23;;
2021;SDS011;1015;49.756;6.994;2022-09-20T04:26:39;6.70;;;4.50;;
2021;SDS011;1015;49.756;6.994;2022-09-20T04:29:21;8.07;;;5.07;;
2021;SDS011;1015;49.756;6.994;2022-09-20T04:31:58;6.43;;;4.23;;
2021;SDS011;1015;49.756;6.994;2022-09-20T04:34:30;6.20;;;4.60;;
2021;SDS011;1015;49.756;6.994;2022-09-20T04:37:21;6.40;;;4.90;;
2021;SDS011;1015;49.756;6.994;2022-09-20T04:39:54;8.43;;;4.93;;
2021;SDS011;1015;49.756;6.994;2022-09-20T04:45:43;7.93;;;5.50;;
2021;SDS011;1015;49.756;6.994;2022-09-20T04:48:51;8.23;;;5.60;;
2021;SDS011;1015;49.756;6.994;2022-09-20T04:51:50;5.97;;;5.10;;
2021;SDS011;1015;49.756;6.994;2022-09-20T04:57:39;5.13;;;4.63;;
2021;SDS011;1015;49.756;6.994;2022-09-20T05:00:35;6.57;;;5.40;;
2021;SDS011;1015;49.756;6.994;2022-09-20T05:03:25;7.80;;;5.27;;
2021;SDS011;1015;49.756;6.994;2022-09-20T05:06:12;6.87;;;5.77;;
2021;SDS011;1015;49.756;6.994;2022-09-20T05:12:16;10.27;;;7.70;;
2021;SDS011;1015;49.756;6.994;2022-09-20T05:15:10;8.63;;;7.53;;
2021;SDS011;1015;49.756;6.994;2022-09-20T05:18:05;8.90;;;7.37;;
2021;SDS011;1015;49.756;6.994;2022-09-20T05:20:45;7.03;;;6.33;;
2021;SDS011;1015;49.756;6.994;2022-09-20T05:23:30;8.73;;;6.17;;
2021;SDS011;1015;49.756;6.994;2022-09-20T05:26:22;9.37;;;6.37;;
2021;SDS011;1015;49.756;6.994;2022-09-20T05:29:04;8.20;;;7.10;;
2021;SDS011;1015;49.756;6.994;2022-09-20T05:31:39;8.90;;;6.23;;
2021;SDS011;1015;49.756;6.994;2022-09-20T05:34:15;7.20;;;6.10;;
2021;SDS011;1015;49.756;6.994;2022-09-20T05:36:52;7.97;;;7.13;;
2021;SDS011;1015;49.756;6.994;2022-09-20T05:39:30;7.53;;;5.57;;
2021;SDS011;1015;49.756;6.994;2022-09-20T05:42:04;6.03;;;5.43;;
2021;SDS011;1015;49.756;6.994;2022-09-20T05:44:49;11.73;;;7.00;;
2021;SDS011;1015;49.756;6.994;2022-09-20T05:47:23;8.93;;;6.67;;
2021;SDS011;1015;49.756;6.994;2022-09-20T05:50:07;12.07;;;7.77;;
2021;SDS011;1015;49.756;6.994;2022-09-20T05:52:50;13.23;;;6.63;;
2021;SDS011;1015;49.756;6.994;2022-09-20T05:55:37;10.37;;;6.73;;
2021;SDS011;1015;49.756;6.994;2022-09-20T05:58:21;10.77;;;6.53;;
2021;SDS011;1015;49.756;6.994;2022-09-20T06:00:56;12.10;;;6.80;;
2021;SDS011;1015;49.756;6.994;2022-09-20T06:03:29;9.60;;;6.47;;
2021;SDS011;1015;49.756;6.994;2022-09-20T06:06:05;9.77;;;8.17;;
2021;SDS011;1015;49.756;6.994;2022-09-20T06:08:47;11.77;;;7.40;;
2021;SDS011;1015;49.756;6.994;2022-09-20T06:11:32;11.37;;;6.63;;
2021;SDS011;1015;49.756;6.994;2022-09-20T06:14:22;8.73;;;6.40;;
2021;SDS011;1015;49.756;6.994;2022-09-20T06:17:01;10.60;;;6.13;;
2021;SDS011;1015;49.756;6.994;2022-09-20T06:19:41;9.30;;;6.47;;
2021;SDS011;1015;49.756;6.994;2022-09-20T06:22:15;7.80;;;6.47;;
2021;SDS011;1015;49.756;6.994;2022-09-20T06:24:47;7.17;;;5.67;;
2021;SDS011;1015;49.756;6.994;2022-09-20T06:27:22;7.00;;;5.63;;
2021;SDS011;1015;49.756;6.994;2022-09-20T06:29:52;5.70;;;5.20;;
2021;SDS011;1015;49.756;6.994;2022-09-20T06:32:23;10.07;;;5.47;;
2021;SDS011;1015;49.756;6.994;2022-09-20T06:34:51;6.13;;;5.53;;
2021;SDS011;1015;49.756;6.994;2022-09-20T06:37:27;7.73;;;6.80;;
2021;SDS011;1015;49.756;6.994;2022-09-20T06:40:28;8.00;;;7.17;;
2021;SDS011;1015;49.756;6.994;2022-09-20T06:43:19;10.30;;;8.57;;
2021;SDS011;1015;49.756;6.994;2022-09-20T06:45:45;12.83;;;9.03;;
2021;SDS011;1015;49.756;6.994;2022-09-20T06:48:13;10.20;;;7.70;;
2021;SDS011;1015;49.756;6.994;2022-09-20T06:50:40;10.43;;;8.10;;
2021;SDS011;1015;49.756;6.994;2022-09-20T06:53:10;11.47;;;9.37;;
2021;SDS011;1015;49.756;6.994;2022-09-20T06:55:41;9.70;;;8.07;;
2021;SDS011;1015;49.756;6.994;2022-09-20T06:58:10;8.70;;;7.40;;
2021;SDS011;1015;49.756;6.994;2022-09-20T07:00:37;10.03;;;6.37;;
2021;SDS011;1015;49.756;6.994;2022-09-20T07:03:05;7.00;;;5.57;;
2021;SDS011;1015;49.756;6.994;2022-09-20T07:05:32;6.30;;;5.67;;
2021;SDS011;1015;49.756;6.994;2022-09-20T07:08:00;8.27;;;6.07;;
2021;SDS011;1015;49.756;6.994;2022-09-20T07:10:29;8.23;;;5.80;;
2021;SDS011;1015;49.756;6.994;2022-09-20T07:12:56;5.80;;;5.17;;
2021;SDS011;1015;49.756;6.994;2022-09-20T07:15:24;5.40;;;4.90;;
2021;SDS011;1015;49.756;6.994;2022-09-20T07:17:52;8.10;;;5.57;;
2021;SDS011;1015;49.756;6.994;2022-09-20T07:20:19;5.30;;;4.80;;
2021;SDS011;1015;49.756;6.994;2022-09-20T07:22:46;9.43;;;5.97;;
2021;SDS011;1015;49.756;6.994;2022-09-20T07:25:14;9.17;;;5.67;;
2021;SDS011;1015;49.756;6.994;2022-09-20T07:27:43;7.73;;;5.17;;
2021;SDS011;1015;49.756;6.994;2022-09-20T07:30:12;8.07;;;5.77;;
2021;SDS011;1015;49.756;6.994;2022-09-20T07:32:39;10.40;;;5.67;;
2021;SDS011;1015;49.756;6.994;2022-09-20T07:35:06;7.17;;;5.57;;
2021;SDS011;1015;49.756;6.994;2022-09-20T07:37:34;7.03;;;5.40;;
2021;SDS011;1015;49.756;6.994;2022-09-20T07:40:02;7.87;;;5.60;;
2021;SDS011;1015;49.756;6.994;2022-09-20T07:42:30;6.07;;;5.40;;
2021;SDS011;1015;49.756;6.994;2022-09-20T07:44:58;7.63;;;5.90;;
2021;SDS011;1015;49.756;6.994;2022-09-20T07:47:26;39.13;;;23.23;;
2021;SDS011;1015;49.756;6.994;2022-09-20T07:49:56;12.73;;;8.40;;
2021;SDS011;1015;49.756;6.994;2022-09-20T07:52:23;23.63;;;14.90;;
2021;SDS011;1015;49.756;6.994;2022-09-20T07:54:50;10.03;;;7.60;;
2021;SDS011;1015;49.756;6.994;2022-09-20T07:57:16;10.83;;;7.20;;
2021;SDS011;1015;49.756;6.994;2022-09-20T07:59:43;5.67;;;4.80;;
2021;SDS011;1015;49.756;6.994;2022-09-20T08:02:13;5.93;;;4.47;;
2021;SDS011;1015;49.756;6.994;2022-09-20T08:04:41;7.70;;;5.30;;
2021;SDS011;1015;49.756;6.994;2022-09-20T08:07:08;5.20;;;4.43;;
2021;SDS011;1015;49.756;6.994;2022-09-20T08:09:36;7.73;;;3.93;;
2021;SDS011;1015;49.756;6.994;2022-09-20T08:12:03;6.17;;;4.23;;
2021;SDS011;1015;49.756;6.994;2022-09-20T08:14:32;5.37;;;4.50;;
2021;SDS011;1015;49.756;6.994;2022-09-20T08:17:00;9.17;;;5.00;;
2021;SDS011;1015;49.756;6.994;2022-09-20T08:19:28;8.70;;;4.87;;
2021;SDS011;1015;49.756;6.994;2022-09-20T08:21:55;6.50;;;4.60;;
2021;SDS011;1015;49.756;6.994;2022-09-20T08:24:22;6.00;;;4.53;;
2021;SDS011;1015;49.756;6.994;2022-09-20T08:26:51;8.50;;;4.43;;
2021;SDS011;1015;49.756;6.994;2022-09-20T08:29:18;8.80;;;3.93;;
2021;SDS011;1015;49.756;6.994;2022-09-20T08:31:44;7.53;;;3.57;;
2021;SDS011;1015;49.756;6.994;2022-09-20T08:34:12;4.20;;;3.77;;
2021;SDS011;1015;49.756;6.994;2022-09-20T08:36:42;7.33;;;3.70;;
2021;SDS011;1015;49.756;6.994;2022-09-20T08:39:11;3.47;;;3.17;;
2021;SDS011;1015;49.756;6.994;2022-09-20T08:41:39;5.83;;;3.37;;
2021;SDS011;1015;49.756;6.994;2022-09-20T08:44:12;5.80;;;3.90;;
2021;SDS011;1015;49.756;6.994;2022-09-20T08:46:43;5.07;;;3.07;;
2021;SDS011;1015;49.756;6.994;2022-09-20T08:49:14;6.00;;;3.10;;
2021;SDS011;1015;49.756;6.994;2022-09-20T08:51:49;3.43;;;2.77;;
2021;SDS011;1015;49.756;6.994;2022-09-20T08:54:16;4.00;;;3.00;;
2021;SDS011;1015;49.756;6.994;2022-09-20T08:56:43;5.63;;;3.57;;
2021;SDS011;1015;49.756;6.994;2022-09-20T08:59:13;5.80;;;3.50;;
2021;SDS011;1015;49.756;6.994;2022-09-20T09:01:42;3.60;;;3.03;;
2021;SDS011;1015;49.756;6.994;2022-09-20T09:04:11;6.37;;;3.43;;
2021;SDS011;1015;49.756;6.994;2022-09-20T09:06:39;6.33;;;3.37;;
2021;SDS011;1015;49.756;6.994;2022-09-20T09:09:09;4.17;;;3.13;;
2021;SDS011;1015;49.756;6.994;2022-09-20T09:11:43;5.40;;;3.00;;
2021;SDS011;1015;49.756;6.994;2022-09-20T09:14:12;4.27;;;3.17;;
2021;SDS011;1015;49.756;6.994;2022-09-20T09:17:08;5.90;;;2.43;;
2021;SDS011;1015;49.756;6.994;2022-09-20T09:19:44;4.03;;;2.57;;
2021;SDS011;1015;49.756;6.994;2022-09-20T09:22:23;4.30;;;2.27;;
2021;SDS011;1015;49.756;6.994;2022-09-20T09:25:09;3.33;;;2.27;;
2021;SDS011;1015;49.756;6.994;2022-09-20T09:27:54;3.90;;;2.50;;
2021;SDS011;1015;49.756;6.994;2022-09-20T09:30:23;2.63;;;1.90;;
2021;SDS011;1015;49.756;6.994;2022-09-20T09:32:55;3.00;;;1.87;;
2021;SDS011;1015;49.756;6.994;2022-09-20T09:35:52;2.77;;;1.90;;
2021;SDS011;1015;49.756;6.994;2022-09-20T09:38:22;4.50;;;2.20;;
2021;SDS011;1015;49.756;6.994;2022-09-20T09:40:52;5.67;;;1.83;;
2021;SDS011;1015;49.756;6.994;2022-09-20T09:43:21;3.30;;;1.90;;
2021;SDS011;1015;49.756;6.994;2022-09-20T09:45:51;4.40;;;2.60;;
2021;SDS011;1015;49.756;6.994;2022-09-20T09:48:21;5.20;;;2.00;;
2021;SDS011;1015;49.756;6.994;2022-09-20T09:51:05;3.73;;;2.40;;
2021;SDS011;1015;49.756;6.994;2022-09-20T09:53:35;4.03;;;2.10;;
2021;SDS011;1015;49.756;6.994;2022-09-20T09:56:13;4.57;;;2.03;;
2021;SDS011;1015;49.756;6.994;2022-09-20T09:59:08;3.80;;;2.17;;
2021;SDS011;1015;49.756;6.994;2022-09-20T10:01:48;3.17;;;1.63;;
2021;SDS011;1015;49.756;6.994;2022-09-20T10:04:21;3.80;;;1.90;;
2021;SDS011;1015;49.756;6.994;2022-09-20T10:06:53;5.57;;;2.30;;
2021;SDS011;1015;49.756;6.994;2022-09-20T10:09:29;4.50;;;2.50;;
2021;SDS011;1015;49.756;6.994;2022-09-20T10:12:11;5.50;;;1.80;;
2021;SDS011;1015;49.756;6.994;2022-09-20T10:14:52;2.80;;;2.20;;
2021;SDS011;1015;49.756;6.994;2022-09-20T10:17:45;3.80;;;2.13;;
2021;SDS011;1015;49.756;6.994;2022-09-20T10:20:22;1.50;;;1.40;;
2021;SDS011;1015;49.756;6.994;2022-09-20T10:23:02;3.87;;;1.83;;
2021;SDS011;1015;49.756;6.994;2022-09-20T10:25:40;2.37;;;1.70;;
2021;SDS011;1015;49.756;6.994;2022-09-20T10:28:20;4.53;;;1.90;;
2021;SDS011;1015;49.756;6.994;2022-09-20T10:31:01;3.43;;;1.70;;
2021;SDS011;1015;49.756;6.994;2022-09-20T10:33:34;1.30;;;1.20;;
2021;SDS011;1015;49.756;6.994;2022-09-20T10:36:15;1.77;;;1.30;;
2021;SDS011;1015;49.756;6.994;2022-09-20T10:38:50;4.03;;;1.20;;
2021;SDS011;1015;49.756;6.994;2022-09-20T10:41:30;3.40;;;1.10;;
2021;SDS011;1015;49.756;6.994;2022-09-20T10:44:43;2.97;;;1.50;;
2021;SDS011;1015;49.756;6.994;2022-09-20T10:47:22;2.13;;;1.23;;
2021;SDS011;1015;49.756;6.994;2022-09-20T10:49:59;1.67;;;1.10;;
2021;SDS011;1015;49.756;6.994;2022-09-20T10:52:36;3.40;;;1.40;;
2021;SDS011;1015;49.756;6.994;2022-09-20T10:55:25;2.90;;;1.50;;
2021;SDS011;1015;49.756;6.994;2022-09-20T10:58:03;2.80;;;1.30;;
2021;SDS011;1015;49.756;6.994;2022-09-20T11:00:57;1.70;;;1.50;;
2021;SDS011;1015;49.756;6.994;2022-09-20T11:03:35;3.90;;;1.67;;
2021;SDS011;1015;49.756;6.994;2022-09-20T11:06:17;3.90;;;1.87;;
2021;SDS011;1015;49.756;6.994;2022-09-20T11:08:51;2.30;;;1.60;;
2021;SDS011;1015;49.756;6.994;2022-09-20T11:11:24;2.90;;;1.40;;
2021;SDS011;1015;49.756;6.994;2022-09-20T11:13:57;1.30;;;1.20;;
2021;SDS011;1015;49.756;6.994;2022-09-20T11:16:32;1.27;;;1.17;;
2021;SDS011;1015;49.756;6.994;2022-09-20T11:19:08;3.17;;;1.20;;
2021;SDS011;1015;49.756;6.994;2022-09-20T11:21:45;1.40;;;1.20;;
2021;SDS011;1015;49.756;6.994;2022-09-20T11:24:19;1.00;;;1.00;;
2021;SDS011;1015;49.756;6.994;2022-09-20T11:26:55;1.00;;;0.90;;
2021;SDS011;1015;49.756;6.994;2022-09-20T11:29:26;1.27;;;1.00;;
2021;SDS011;1015;49.756;6.994;2022-09-20T11:32:01;1.77;;;1.17;;
2021;SDS011;1015;49.756;6.994;2022-09-20T11:34:35;1.40;;;1.17;;
2021;SDS011;1015;49.756;6.994;2022-09-20T11:37:08;1.97;;;1.07;;
2021;SDS011;1015;49.756;6.994;2022-09-20T11:39:36;2.17;;;1.10;;
2021;SDS011;1015;49.756;6.994;2022-09-20T11:42:10;2.10;;;1.10;;
2021;SDS011;1015;49.756;6.994;2022-09-20T11:44:41;1.40;;;1.30;;
2021;SDS011;1015;49.756;6.994;2022-09-20T11:47:12;1.33;;;1.20;;
2021;SDS011;1015;49.756;6.994;2022-09-20T11:49:50;1.37;;;1.27;;
2021;SDS011;1015;49.756;6.994;2022-09-20T11:52:49;1.67;;;1.20;;
2021;SDS011;1015;49.756;6.994;2022-09-20T11:55:35;1.50;;;1.00;;
2021;SDS011;1015;49.756;6.994;2022-09-20T11:58:09;1.97;;;1.30;;
2021;SDS011;1015;49.756;6.994;2022-09-20T12:00:40;1.37;;;1.27;;
2021;SDS011;1015;49.756;6.994;2022-09-20T12:03:20;2.03;;;1.00;;
2021;SDS011;1015;49.756;6.994;2022-09-20T12:05:55;2.80;;;1.30;;
2021;SDS011;1015;49.756;6.994;2022-09-20T12:08:24;1.40;;;1.20;;
2021;SDS011;1015;49.756;6.994;2022-09-20T12:10:55;1.70;;;1.50;;
2021;SDS011;1015;49.756;6.994;2022-09-20T12:13:28;2.63;;;1.20;;
2021;SDS011;1015;49.756;6.994;2022-09-20T12:15:58;1.60;;;1.50;;
2021;SDS011;1015;49.756;6.994;2022-09-20T12:18:36;2.90;;;1.43;;
2021;SDS011;1015;49.756;6.994;2022-09-20T12:21:13;3.80;;;1.47;;
2021;SDS011;1015;49.756;6.994;2022-09-20T12:23:45;2.40;;;1.70;;
2021;SDS011;1015;49.756;6.994;2022-09-20T12:26:42;5.23;;;2.47;;
2021;SDS011;1015;49.756;6.994;2022-09-20T12:32:33;2.33;;;2.00;;
2021;SDS011;1015;49.756;6.994;2022-09-20T12:38:27;4.70;;;2.50;;
2021;SDS011;1015;49.756;6.994;2022-09-20T12:41:03;2.47;;;2.20;;
2021;SDS011;1015;49.756;6.994;2022-09-20T12:43:36;3.00;;;2.40;;
2021;SDS011;1015;49.756;6.994;2022-09-20T12:46:17;5.90;;;2.60;;
2021;SDS011;1015;49.756;6.994;2022-09-20T12:48:46;4.87;;;2.63;;
2021;SDS011;1015;49.756;6.994;2022-09-20T12:51:18;2.70;;;2.50;;
2021;SDS011;1015;49.756;6.994;2022-09-20T12:54:10;4.20;;;2.30;;
2021;SDS011;1015;49.756;6.994;2022-09-20T12:56:38;4.27;;;2.80;;
2021;SDS011;1015;49.756;6.994;2022-09-20T12:59:18;5.57;;;2.50;;
2021;SDS011;1015;49.756;6.994;2022-09-20T13:01:48;2.80;;;2.53;;
2021;SDS011;1015;49.756;6.994;2022-09-20T13:10:25;4.40;;;1.80;;
2021;SDS011;1015;49.756;6.994;2022-09-20T13:12:58;1.90;;;1.80;;
2021;SDS011;1015;49.756;6.994;2022-09-20T13:15:36;1.90;;;1.80;;
2021;SDS011;1015;49.756;6.994;2022-09-20T13:18:04;2.17;;;1.60;;
2021;SDS011;1015;49.756;6.994;2022-09-20T13:20:32;3.70;;;2.10;;
2021;SDS011;1015;49.756;6.994;2022-09-20T13:23:00;2.47;;;2.23;;
2021;SDS011;1015;49.756;6.994;2022-09-20T13:25:31;1.50;;;1.40;;
2021;SDS011;1015;49.756;6.994;2022-09-20T13:28:05;2.03;;;1.50;;
2021;SDS011;1015;49.756;6.994;2022-09-20T13:30:35;2.30;;;1.40;;
2021;SDS011;1015;49.756;6.994;2022-09-20T13:35:50;3.03;;;1.77;;
2021;SDS011;1015;49.756;6.994;2022-09-20T13:38:21;1.40;;;1.30;;
2021;SDS011;1015;49.756;6.994;2022-09-20T13:40:52;2.67;;;1.30;;
2021;SDS011;1015;49.756;6.994;2022-09-20T13:43:29;2.30;;;1.40;;
2021;SDS011;1015;49.756;6.994;2022-09-20T13:45:58;1.63;;;1.10;;
2021;SDS011;1015;49.756;6.994;2022-09-20T13:48:32;1.77;;;1.43;;
2021;SDS011;1015;49.756;6.994;2022-09-20T13:50:59;2.60;;;1.73;;
2021;SDS011;1015;49.756;6.994;2022-09-20T13:53:26;5.20;;;1.50;;
2021;SDS011;1015;49.756;6.994;2022-09-20T13:55:57;1.40;;;1.20;;
2021;SDS011;1015;49.756;6.994;2022-09-20T13:58:25;3.60;;;1.33;;
2021;SDS011;1015;49.756;6.994;2022-09-20T14:00:54;2.23;;;1.60;;
2021;SDS011;1015;49.756;6.994;2022-09-20T14:03:24;2.93;;;1.73;;
2021;SDS011;1015;49.756;6.994;2022-09-20T14:05:53;1.93;;;1.37;;
2021;SDS011;1015;49.756;6.994;2022-09-20T14:08:26;1.27;;;1.17;;
2021;SDS011;1015;49.756;6.994;2022-09-20T14:11:04;1.97;;;1.50;;
2021;SDS011;1015;49.756;6.994;2022-09-20T14:13:34;1.97;;;1.30;;
2021;SDS011;1015;49.756;6.994;2022-09-20T14:16:05;3.53;;;1.60;;
2021;SDS011;1015;49.756;6.994;2022-09-20T14:18:33;2.63;;;1.30;;
2021;SDS011;1015;49.756;6.994;2022-09-20T14:21:02;2.27;;;1.33;;
2021;SDS011;1015;49.756;6.994;2022-09-20T14:23:32;1.70;;;1.47;;
2021;SDS011;1015;49.756;6.994;2022-09-20T14:26:23;2.00;;;1.40;;
2021;SDS011;1015;49.756;6.994;2022-09-20T14:31:52;1.70;;;1.53;;
2021;SDS011;1015;49.756;6.994;2022-09-20T14:34:20;1.43;;;1.33;;
2021;SDS011;1015;49.756;6.994;2022-09-20T14:36:48;1.80;;;1.70;;
2021;SDS011;1015;49.756;6.994;2022-09-20T14:39:16;1.50;;;1.40;;
2021;SDS011;1015;49.756;6.994;2022-09-20T14:41:45;1.83;;;1.40;;
2021;SDS011;1015;49.756;6.994;2022-09-20T14:44:18;3.30;;;1.60;;
2021;SDS011;1015;49.756;6.994;2022-09-20T14:46:51;2.27;;;1.60;;
2021;SDS011;1015;49.756;6.994;2022-09-20T14:49:19;1.60;;;1.50;;
2021;SDS011;1015;49.756;6.994;2022-09-20T14:54:56;1.40;;;1.30;;
2021;SDS011;1015;49.756;6.994;2022-09-20T14:57:26;2.67;;;1.47;;
2021;SDS011;1015;49.756;6.994;2022-09-20T14:59:56;2.90;;;1.80;;
2021;SDS011;1015;49.756;6.994;2022-09-20T15:02:23;2.80;;;1.80;;
2021;SDS011;1015;49.756;6.994;2022-09-20T15:04:51;2.13;;;1.50;;
2021;SDS011;1015;49.756;6.994;2022-09-20T15:07:20;2.87;;;1.80;;
2021;SDS011;1015;49.756;6.994;2022-09-20T15:09:47;1.87;;;1.70;;
2021;SDS011;1015;49.756;6.994;2022-09-20T15:12:15;2.60;;;1.60;;
2021;SDS011;1015;49.756;6.994;2022-09-20T15:14:45;1.80;;;1.50;;
2021;SDS011;1015;49.756;6.994;2022-09-20T15:17:15;1.50;;;1.40;;
2021;SDS011;1015;49.756;6.994;2022-09-20T15:19:45;3.07;;;1.50;;
2021;SDS011;1015;49.756;6.994;2022-09-20T15:22:13;3.23;;;1.70;;
2021;SDS011;1015;49.756;6.994;2022-09-20T15:24:40;1.60;;;1.40;;
2021;SDS011;1015;49.756;6.994;2022-09-20T15:27:08;1.57;;;1.33;;
2021;SDS011;1015;49.756;6.994;2022-09-20T15:29:36;1.43;;;1.33;;
2021;SDS011;1015;49.756;6.994;2022-09-20T15:32:04;1.13;;;1.00;;
2021;SDS011;1015;49.756;6.994;2022-09-20T15:34:35;1.20;;;1.10;;
2021;SDS011;1015;49.756;6.994;2022-09-20T15:37:02;1.57;;;1.27;;
2021;SDS011;1015;49.756;6.994;2022-09-20T15:39:28;1.73;;;1.30;;
2021;SDS011;1015;49.756;6.994;2022-09-20T15:41:56;1.70;;;1.40;;
2021;SDS011;1015;49.756;6.994;2022-09-20T15:44:22;2.80;;;1.50;;
2021;SDS011;1015;49.756;6.994;2022-09-20T15:46:49;1.80;;;1.23;;
2021;SDS011;1015;49.756;6.994;2022-09-20T15:49:18;1.87;;;1.30;;
2021;SDS011;1015;49.756;6.994;2022-09-20T15:51:46;1.37;;;1.10;;
2021;SDS011;1015;49.756;6.994;2022-09-20T15:54:16;1.40;;;1.20;;
2021;SDS011;1015;49.756;6.994;2022-09-20T15:56:43;2.27;;;1.33;;
2021;SDS011;1015;49.756;6.994;2022-09-20T15:59:10;2.00;;;1.40;;
2021;SDS011;1015;49.756;6.994;2022-09-20T16:01:39;2.20;;;1.57;;
2021;SDS011;1015;49.756;6.994;2022-09-20T16:04:08;1.60;;;1.30;;
2021;SDS011;1015;49.756;6.994;2022-09-20T16:06:38;3.10;;;1.40;;
2021;SDS011;1015;49.756;6.994;2022-09-20T16:09:07;1.33;;;1.23;;
2021;SDS011;1015;49.756;6.994;2022-09-20T16:11:34;1.50;;;1.40;;
2021;SDS011;1015;49.756;6.994;2022-09-20T16:14:03;2.63;;;1.93;;
2021;SDS011;1015;49.756;6.994;2022-09-20T16:16:30;2.47;;;1.80;;
2021;SDS011;1015;49.756;6.994;2022-09-20T16:18:59;1.30;;;1.20;;
2021;SDS011;1015;49.756;6.994;2022-09-20T16:21:46;4.83;;;1.43;;
2021;SDS011;1015;49.756;6.994;2022-09-20T16:24:15;1.97;;;1.30;;
2021;SDS011;1015;49.756;6.994;2022-09-20T16:26:42;2.10;;;1.53;;
2021;SDS011;1015;49.756;6.994;2022-09-20T16:29:11;1.73;;;1.40;;
2021;SDS011;1015;49.756;6.994;2022-09-20T16:31:41;1.60;;;1.50;;
2021;SDS011;1015;49.756;6.994;2022-09-20T16:34:11;1.70;;;1.60;;
2021;SDS011;1015;49.756;6.994;2022-09-20T16:36:41;1.40;;;1.30;;
2021;SDS011;1015;49.756;6.994;2022-09-20T16:39:11;3.23;;;1.43;;